Time;durP1;ratioP1;P1;durP2;ratioP2;P2;SDS_P1;SDS_P2;PMS_P1;PMS_P2;Temp;Humidity;BMP_temperature;BMP_pressure;BME280_temperature;BME280_humidity;BME280_pressure;Samples;Min_cycle;Max_cycle;Signal;HPM_P1;HPM_P2
2023/08/19 04:02:10;;;;;;;0.70;0.20;;;;;;;;;;5171165;23;21020;-75
2023/08/19 04:05:19;;;;;;;0.70;0.10;;;;;;;;;;4925374;29;20491;-77
2023/08/19 04:07:47;;;;;;;0.60;0.10;;;;;;;;;;4924682;29;20507;-76
2023/08/19 04:10:16;;;;;;;0.70;0.30;;;;;;;;;;4927208;29;20444;-76
2023/08/19 04:12:45;;;;;;;0.70;0.10;;;;;;;;;;4930688;29;20452;-76
2023/08/19 04:15:13;;;;;;;0.70;0.30;;;24.00;92.40;;;;;;4919540;29;20449;-76
2023/08/19 04:17:43;;;;;;;0.70;0.20;;;24.00;98.10;;;;;;4923953;29;20520;-77
2023/08/19 04:20:11;;;;;;;0.70;0.10;;;;;;;;;;4925627;29;20468;-76
2023/08/19 04:22:40;;;;;;;0.70;0.20;;;24.00;93.60;;;;;;4923382;29;20535;-75
2023/08/19 04:25:09;;;;;;;1.10;0.87;;;24.00;94.20;;;;;;4921860;29;20551;-76
2023/08/19 04:27:36;;;;;;;0.80;0.33;;;24.00;99.30;;;;;;4923500;29;20463;-76
2023/08/19 04:30:05;;;;;;;1.67;0.93;;;23.90;94.80;;;;;;4922774;29;21013;-76
2023/08/19 04:32:33;;;;;;;0.70;0.20;;;23.90;94.60;;;;;;4922697;29;20480;-76
2023/08/19 04:35:03;;;;;;;0.70;0.20;;;23.90;94.70;;;;;;4921232;29;20445;-76
2023/08/19 04:37:32;;;;;;;0.70;0.10;;;;;;;;;;4920490;29;20475;-76
2023/08/19 04:40:00;;;;;;;0.70;0.10;;;24.00;96.00;;;;;;4923563;29;20448;-77
2023/08/19 04:42:28;;;;;;;0.70;0.10;;;24.00;96.00;;;;;;4924937;29;20488;-77
2023/08/19 04:44:56;;;;;;;1.00;0.30;;;24.10;99.90;;;;;;4919331;29;20543;-76
2023/08/19 04:47:24;;;;;;;0.70;0.30;;;24.10;99.90;;;;;;4922212;29;21045;-75
2023/08/19 04:49:51;;;;;;;0.70;0.33;;;24.10;99.90;;;;;;4922541;29;20953;-76
2023/08/19 04:52:21;;;;;;;0.60;0.10;;;24.10;96.70;;;;;;4922254;29;20472;-77
2023/08/19 04:54:48;;;;;;;0.60;0.10;;;24.10;95.10;;;;;;4921729;29;20460;-77
2023/08/19 04:57:16;;;;;;;0.70;0.10;;;24.10;99.80;;;;;;4921484;29;20490;-77
2023/08/19 04:59:44;;;;;;;0.60;0.10;;;24.10;99.40;;;;;;4920688;29;20555;-76
2023/08/19 05:02:12;;;;;;;0.70;0.30;;;24.10;94.80;;;;;;4919696;29;20570;-76
2023/08/19 05:04:40;;;;;;;0.70;0.20;;;;;;;;;;4926077;29;20498;-75
2023/08/19 05:07:08;;;;;;;0.70;0.10;;;24.00;95.40;;;;;;4920232;29;20547;-75
2023/08/19 05:09:37;;;;;;;0.70;0.10;;;24.10;96.00;;;;;;4918299;29;20511;-76
2023/08/19 05:12:06;;;;;;;0.70;0.20;;;24.20;97.10;;;;;;4920556;29;20559;-77
2023/08/19 05:14:34;;;;;;;0.70;0.20;;;24.20;99.90;;;;;;4919276;29;20456;-76
2023/08/19 05:17:02;;;;;;;0.70;0.10;;;24.20;99.90;;;;;;4918876;29;20543;-76
2023/08/19 05:19:31;;;;;;;0.70;0.10;;;24.30;99.90;;;;;;4919986;29;20927;-76
2023/08/19 05:21:59;;;;;;;0.70;0.20;;;24.40;99.90;;;;;;4920838;29;20504;-77
2023/08/19 05:24:27;;;;;;;0.70;0.30;;;24.40;99.90;;;;;;4920927;29;20575;-77
2023/08/19 05:26:56;;;;;;;0.70;0.10;;;24.50;99.90;;;;;;4922572;29;20890;-77
2023/08/19 05:29:24;;;;;;;0.70;0.10;;;24.40;96.00;;;;;;4927992;29;20437;-77
2023/08/19 05:31:52;;;;;;;0.70;0.10;;;24.40;96.10;;;;;;4928366;29;20476;-76
2023/08/19 05:34:20;;;;;;;0.70;0.10;;;24.40;96.80;;;;;;4928134;29;20460;-76
2023/08/19 05:36:48;;;;;;;0.60;0.10;;;24.50;96.20;;;;;;4923815;29;20480;-76
2023/08/19 05:39:16;;;;;;;0.70;0.10;;;24.50;96.80;;;;;;4920123;29;20441;-77
2023/08/19 05:41:44;;;;;;;0.70;0.10;;;24.50;97.80;;;;;;4919818;29;20478;-77
2023/08/19 05:44:14;;;;;;;0.70;0.20;;;24.60;99.90;;;;;;4914256;29;20575;-77
2023/08/19 05:46:43;;;;;;;0.70;0.10;;;24.60;95.30;;;;;;4918801;29;20468;-77
2023/08/19 05:49:12;;;;;;;0.70;0.10;;;24.50;99.90;;;;;;4921000;29;20482;-77
2023/08/19 05:51:40;;;;;;;0.70;0.10;;;24.50;96.30;;;;;;4923024;29;20808;-76
2023/08/19 05:54:07;;;;;;;0.70;0.10;;;24.60;99.90;;;;;;4920643;29;20540;-77
2023/08/19 05:56:35;;;;;;;0.70;0.10;;;24.60;97.40;;;;;;4918533;29;20471;-76
2023/08/19 05:59:04;;;;;;;0.70;0.20;;;24.70;99.90;;;;;;4919823;29;20480;-77
2023/08/19 06:01:33;;;;;;;0.70;0.10;;;24.70;96.10;;;;;;4918450;29;20486;-76
2023/08/19 06:04:01;;;;;;;0.70;0.20;;;24.80;95.80;;;;;;4920224;29;20481;-76
2023/08/19 06:06:29;;;;;;;0.70;0.10;;;24.80;95.90;;;;;;4916376;29;20479;-76
2023/08/19 06:08:57;;;;;;;0.70;0.10;;;24.80;95.00;;;;;;4918666;29;20540;-77
2023/08/19 06:11:25;;;;;;;0.70;0.10;;;24.80;94.30;;;;;;4919857;29;20535;-76
2023/08/19 06:13:52;;;;;;;0.70;0.20;;;24.80;99.80;;;;;;4918271;29;20452;-76
2023/08/19 06:16:20;;;;;;;0.70;0.10;;;24.80;99.90;;;;;;4923809;29;20472;-78
2023/08/19 06:18:50;;;;;;;0.70;0.10;;;24.80;96.90;;;;;;4923364;29;20953;-78
2023/08/19 06:21:18;;;;;;;0.70;0.20;;;24.80;95.80;;;;;;4919623;29;21055;-77
2023/08/19 06:23:46;;;;;;;1.10;0.83;;;24.80;96.00;;;;;;4923653;29;20524;-77
2023/08/19 06:26:13;;;;;;;0.70;0.10;;;24.80;96.10;;;;;;4922538;29;20495;-77
2023/08/19 06:28:41;;;;;;;1.43;1.33;;;24.80;95.50;;;;;;4922929;29;20465;-78
2023/08/19 06:31:10;;;;;;;0.70;0.17;;;20.00;94.00;;;;;;4916538;29;20496;-77
2023/08/19 06:33:38;;;;;;;0.70;0.20;;;25.00;97.60;;;;;;4918452;29;20444;-76
2023/08/19 06:36:11;;;;;;;0.70;0.10;;;25.00;96.50;;;;;;4918615;29;20444;-76
2023/08/19 06:38:42;;;;;;;0.70;0.20;;;25.00;96.20;;;;;;4916488;29;20480;-76
2023/08/19 06:41:12;;;;;;;0.70;0.10;;;25.10;97.30;;;;;;4919419;29;20512;-77
2023/08/19 06:43:41;;;;;;;0.70;0.10;;;25.10;98.90;;;;;;4923421;29;20483;-76
2023/08/19 06:46:10;;;;;;;0.70;0.10;;;;;;;;;;4918416;29;20456;-76
2023/08/19 06:48:39;;;;;;;0.70;0.10;;;25.20;98.80;;;;;;4916966;29;20436;-76
2023/08/19 06:51:10;;;;;;;0.70;0.10;;;25.20;98.00;;;;;;4916217;29;20840;-76
2023/08/19 06:53:38;;;;;;;0.70;0.10;;;25.20;99.90;;;;;;4916228;29;20481;-75
2023/08/19 06:56:13;;;;;;;0.70;0.10;;;25.20;99.90;;;;;;4917485;29;20516;-76
2023/08/19 06:58:45;;;;;;;0.70;0.10;;;25.30;97.30;;;;;;4898396;29;20938;-77
2023/08/19 07:01:19;;;;;;;0.70;0.10;;;25.30;96.50;;;;;;4898767;29;20478;-76
2023/08/19 07:03:48;;;;;;;0.70;0.10;;;25.40;95.10;;;;;;4898282;29;20491;-78
2023/08/19 07:06:20;;;;;;;0.70;0.10;;;25.40;99.90;;;;;;4902466;29;20494;-76
2023/08/19 07:08:48;;;;;;;0.70;0.10;;;25.50;94.40;;;;;;4902783;29;20548;-76
2023/08/19 07:11:17;;;;;;;1.17;1.07;;;25.50;93.80;;;;;;4903714;29;20493;-78
2023/08/19 07:13:45;;;;;;;0.70;0.17;;;25.50;98.80;;;;;;4904820;29;20506;-78
2023/08/19 07:16:15;;;;;;;0.70;0.20;;;25.50;93.50;;;;;;4902269;29;20454;-77
2023/08/19 07:18:47;;;;;;;0.70;0.10;;;25.50;93.80;;;;;;4922102;29;20455;-77
2023/08/19 07:21:19;;;;;;;0.70;0.10;;;25.50;94.20;;;;;;4921876;29;20689;-77
2023/08/19 07:23:48;;;;;;;1.00;0.87;;;25.50;99.70;;;;;;4920504;29;20565;-77
2023/08/19 07:26:18;;;;;;;0.70;0.20;;;25.60;94.40;;;;;;4919824;29;21150;-77
2023/08/19 07:28:46;;;;;;;0.70;0.10;;;25.50;95.60;;;;;;4920370;29;20450;-76
2023/08/19 07:31:16;;;;;;;0.70;0.10;;;25.60;96.10;;;;;;4920398;29;20514;-77
2023/08/19 07:33:44;;;;;;;0.70;0.10;;;25.60;99.90;;;;;;4931833;29;20456;-76
2023/08/19 07:36:12;;;;;;;0.70;0.20;;;25.60;95.50;;;;;;4931605;29;20440;-77
2023/08/19 07:38:42;;;;;;;0.70;0.10;;;25.60;95.60;;;;;;4929794;29;20456;-76
2023/08/19 07:41:10;;;;;;;0.70;0.20;;;25.60;96.60;;;;;;4926054;29;21165;-75
2023/08/19 07:43:37;;;;;;;0.70;0.20;;;25.70;97.80;;;;;;4923111;29;20535;-73
2023/08/19 07:46:05;;;;;;;0.70;0.10;;;25.70;99.90;;;;;;4919779;29;20605;-75
2023/08/19 07:48:33;;;;;;;0.70;0.10;;;25.80;99.90;;;;;;4918758;29;20452;-73
2023/08/19 07:51:01;;;;;;;0.70;0.13;;;25.80;96.90;;;;;;4918264;29;20562;-76
2023/08/19 07:53:29;;;;;;;1.20;0.80;;;;;;;;;;4917934;29;20499;-73
2023/08/19 07:55:58;;;;;;;0.70;0.10;;;25.90;96.60;;;;;;4917459;29;20881;-73
2023/08/19 07:58:26;;;;;;;0.70;0.10;;;26.00;97.60;;;;;;4917654;29;20457;-74
2023/08/19 08:00:54;;;;;;;0.70;0.17;;;26.00;97.80;;;;;;4917406;29;20488;-75
2023/08/19 08:03:22;;;;;;;0.70;0.20;;;26.00;99.90;;;;;;4917527;29;20452;-73
2023/08/19 08:05:50;;;;;;;0.70;0.10;;;26.10;99.90;;;;;;4917680;29;20488;-75
2023/08/19 08:08:17;;;;;;;0.70;0.10;;;26.10;99.90;;;;;;4918107;29;20508;-74
2023/08/19 08:10:46;;;;;;;0.70;0.10;;;;;;;;;;4917673;29;20561;-73
2023/08/19 08:13:15;;;;;;;0.70;0.10;;;26.30;98.20;;;;;;4917893;29;20516;-74
2023/08/19 08:15:43;;;;;;;0.70;0.10;;;26.40;97.40;;;;;;4916276;29;20454;-74
2023/08/19 08:18:11;;;;;;;0.70;0.10;;;26.40;98.60;;;;;;4916419;29;20559;-74
2023/08/19 08:20:39;;;;;;;0.70;0.10;;;26.50;99.70;;;;;;4917387;29;20504;-75
2023/08/19 08:23:06;;;;;;;0.70;0.10;;;26.50;99.90;;;;;;4917227;29;20536;-75
2023/08/19 08:25:34;;;;;;;0.70;0.10;;;26.60;99.90;;;;;;4916940;29;20490;-74
2023/08/19 08:28:02;;;;;;;0.70;0.20;;;26.60;99.90;;;;;;4917845;29;20544;-73
2023/08/19 08:30:31;;;;;;;1.77;0.77;;;26.50;94.20;;;;;;4916933;29;20454;-72
2023/08/19 08:32:59;;;;;;;0.70;0.20;;;26.60;91.40;;;;;;4917292;29;20445;-76
2023/08/19 08:35:31;;;;;;;0.70;0.20;;;;;;;;;;4917766;29;20476;-73
2023/08/19 08:37:59;;;;;;;0.70;0.20;;;26.50;90.20;;;;;;4915779;29;20525;-74
2023/08/19 08:40:27;;;;;;;0.70;0.20;;;26.70;90.50;;;;;;4917558;29;20445;-72
2023/08/19 08:42:55;;;;;;;0.70;0.20;;;26.70;96.10;;;;;;4917260;29;20446;-74
2023/08/19 08:45:25;;;;;;;0.70;0.10;;;26.80;96.70;;;;;;4916493;29;20481;-74
2023/08/19 08:47:55;;;;;;;0.70;0.10;;;26.90;96.20;;;;;;4914892;29;20467;-74
2023/08/19 08:50:23;;;;;;;0.70;0.20;;;27.00;89.40;;;;;;4916158;29;20453;-74
2023/08/19 08:52:51;;;;;;;0.70;0.10;;;27.10;84.60;;;;;;4915293;29;20583;-74
2023/08/19 08:55:19;;;;;;;0.70;0.20;;;27.10;93.10;;;;;;4910256;29;20845;-75
2023/08/19 08:57:47;;;;;;;0.70;0.10;;;27.30;83.80;;;;;;4896731;29;20542;-74
2023/08/19 09:00:16;;;;;;;0.70;0.10;;;27.40;83.20;;;;;;4895084;29;20549;-73
2023/08/19 09:02:46;;;;;;;0.70;0.20;;;27.40;92.00;;;;;;4896131;29;20464;-76
2023/08/19 09:05:18;;;;;;;0.70;0.10;;;27.60;82.60;;;;;;4897733;29;21055;-75
2023/08/19 09:07:49;;;;;;;0.70;0.20;;;27.60;91.90;;;;;;4896712;29;20476;-74
2023/08/19 09:10:24;;;;;;;0.80;0.43;;;27.70;79.50;;;;;;4897978;29;20528;-75
2023/08/19 09:12:58;;;;;;;0.70;0.20;;;27.70;90.50;;;;;;4898428;29;21025;-75
2023/08/19 09:15:28;;;;;;;0.70;0.20;;;27.80;86.00;;;;;;4899036;29;20444;-75
2023/08/19 09:17:57;;;;;;;0.70;0.10;;;27.80;87.60;;;;;;4898651;29;20864;-74
2023/08/19 09:20:28;;;;;;;0.70;0.20;;;27.90;70.40;;;;;;4897819;29;20553;-75
2023/08/19 09:23:05;;;;;;;0.70;0.10;;;27.90;83.00;;;;;;4898719;29;20488;-74
2023/08/19 09:25:37;;;;;;;0.70;0.10;;;28.00;83.50;;;;;;4898059;29;20573;-76
2023/08/19 09:28:06;;;;;;;0.70;0.10;;;28.20;76.30;;;;;;4897887;29;20992;-76
2023/08/19 09:30:34;;;;;;;0.70;0.10;;;28.20;77.70;;;;;;4897325;29;20540;-75
2023/08/19 09:33:03;;;;;;;0.70;0.20;;;28.20;89.80;;;;;;4897625;29;20539;-75
2023/08/19 09:35:37;;;;;;;0.70;0.10;;;28.30;90.00;;;;;;4897349;29;20508;-74
2023/08/19 09:38:25;;;;;;;1.20;0.63;;;28.30;90.00;;;;;;4897121;29;20881;-74
2023/08/19 09:41:02;;;;;;;0.70;0.33;;;28.40;79.30;;;;;;4897524;29;20495;-75
2023/08/19 09:43:30;;;;;;;0.70;0.10;;;28.40;90.40;;;;;;4898963;29;20511;-74
2023/08/19 09:45:58;;;;;;;0.70;0.10;;;28.40;80.60;;;;;;4898891;29;20519;-75
2023/08/19 09:48:27;;;;;;;0.70;0.10;;;28.50;91.10;;;;;;4899151;29;20793;-76
2023/08/19 09:50:56;;;;;;;0.70;0.20;;;28.60;80.30;;;;;;4899271;29;20468;-76
2023/08/19 09:53:28;;;;;;;0.70;0.10;;;28.60;91.30;;;;;;4897976;29;20976;-75
2023/08/19 09:55:56;;;;;;;0.70;0.10;;;28.80;77.50;;;;;;4897330;29;20537;-76
2023/08/19 09:58:26;;;;;;;0.70;0.10;;;28.80;89.40;;;;;;4896650;29;20459;-73
2023/08/19 10:00:54;;;;;;;0.70;0.20;;;28.90;80.80;;;;;;4895682;29;21009;-74
2023/08/19 10:03:22;;;;;;;0.70;0.20;;;28.90;90.60;;;;;;4896857;29;20448;-74
2023/08/19 10:05:53;;;;;;;4.73;4.33;;;28.90;90.50;;;;;;4896900;29;20579;-73
2023/08/19 10:08:29;;;;;;;0.70;0.10;;;29.00;89.20;;;;;;4896715;29;20455;-74
2023/08/19 10:10:57;;;;;;;32.40;31.00;;;28.90;72.20;;;;;;4896444;29;20472;-73
2023/08/19 10:13:26;;;;;;;0.70;0.20;;;28.90;85.20;;;;;;4896284;29;20555;-73
2023/08/19 10:15:57;;;;;;;0.70;0.10;;;29.00;74.10;;;;;;4896393;29;20494;-72
2023/08/19 10:18:30;;;;;;;0.70;0.10;;;28.90;85.10;;;;;;4896947;29;20529;-72
2023/08/19 10:21:04;;;;;;;0.70;0.20;;;28.90;70.10;;;;;;4896816;29;20587;-72
2023/08/19 10:23:34;;;;;;;0.70;0.10;;;28.90;81.60;;;;;;4897110;29;20492;-72
2023/08/19 10:26:03;;;;;;;0.70;0.20;;;28.90;79.40;;;;;;4897213;29;20895;-72
2023/08/19 10:28:31;;;;;;;0.70;0.20;;;28.80;67.60;;;;;;4896671;29;20508;-71
2023/08/19 10:31:06;;;;;;;5.07;1.23;;;28.80;69.80;;;;;;4896278;29;20476;-71
2023/08/19 10:33:39;;;;;;;1.00;0.63;;;28.80;80.80;;;;;;4896028;29;20830;-72
2023/08/19 10:36:08;;;;;;;0.70;0.10;;;28.80;67.30;;;;;;4896109;29;20451;-73
2023/08/19 10:38:48;;;;;;;0.70;0.10;;;28.80;79.20;;;;;;4896274;29;20449;-73
2023/08/19 10:41:23;;;;;;;0.70;0.20;;;28.90;68.90;;;;;;4896154;29;20560;-72
2023/08/19 10:43:59;;;;;;;0.70;0.20;;;29.00;68.80;;;;;;4894752;29;20479;-72
2023/08/19 10:46:34;;;;;;;1.13;0.97;;;29.00;81.50;;;;;;4897472;29;20486;-74
2023/08/19 10:49:03;;;;;;;0.70;0.13;;;29.00;71.80;;;;;;4891608;29;20460;-72
2023/08/19 10:51:46;;;;;;;0.80;0.50;;;29.10;67.80;;;;;;4897897;29;21004;-73
2023/08/19 10:54:24;;;;;;;0.70;0.10;;;29.10;70.40;;;;;;4896876;29;20448;-76
2023/08/19 10:56:53;;;;;;;0.70;0.10;;;29.20;69.20;;;;;;4894554;29;20480;-73
2023/08/19 10:59:21;;;;;;;0.70;0.10;;;29.30;80.90;;;;;;4894048;29;20536;-72
2023/08/19 11:01:50;;;;;;;0.70;0.20;;;29.40;67.10;;;;;;4895328;29;20523;-74
2023/08/19 11:04:20;;;;;;;0.70;0.33;;;29.50;69.90;;;;;;4893876;29;20454;-74
2023/08/19 11:06:52;;;;;;;0.70;0.10;;;29.50;81.70;;;;;;4895461;29;20477;-75
2023/08/19 11:09:24;;;;;;;0.70;0.10;;;29.40;61.40;;;;;;4895472;29;20507;-74
2023/08/19 11:11:52;;;;;;;0.70;0.30;;;29.50;62.90;;;;;;4895456;29;20500;-74
2023/08/19 11:14:22;;;;;;;0.70;0.10;;;29.50;65.80;;;;;;4893940;29;20513;-74
2023/08/19 11:16:51;;;;;;;0.70;0.10;;;29.50;77.60;;;;;;4894793;29;20953;-76
2023/08/19 11:19:20;;;;;;;0.70;0.10;;;29.70;80.10;;;;;;4895476;29;20461;-76
2023/08/19 11:21:49;;;;;;;0.70;0.20;;;29.80;70.40;;;;;;4895510;29;20540;-72
2023/08/19 11:24:17;;;;;;;0.70;0.20;;;30.00;71.80;;;;;;4894785;29;20464;-71
2023/08/19 11:26:48;;;;;;;4.10;1.30;;;30.10;63.50;;;;;;4895395;29;20643;-72
2023/08/19 11:29:16;;;;;;;0.70;0.20;;;30.10;71.80;;;;;;4904246;29;20461;-74
2023/08/19 11:31:44;;;;;;;0.70;0.10;;;30.10;62.30;;;;;;4907637;29;20499;-73
2023/08/19 11:34:14;;;;;;;0.70;0.20;;;30.10;76.50;;;;;;4905193;29;20446;-75
2023/08/19 11:36:45;;;;;;;0.70;0.20;;;30.10;60.30;;;;;;4896263;29;20506;-74
2023/08/19 11:39:13;;;;;;;0.70;0.10;;;30.10;71.90;;;;;;4896244;29;20659;-72
2023/08/19 11:41:41;;;;;;;0.70;0.10;;;30.10;63.90;;;;;;4895634;29;20469;-74
2023/08/19 11:44:10;;;;;;;0.70;0.30;;;30.00;60.20;;;;;;4895504;29;20461;-74
2023/08/19 11:46:38;;;;;;;0.70;0.13;;;30.00;71.70;;;;;;4898808;29;20495;-75
2023/08/19 11:49:08;;;;;;;0.70;0.20;;;29.70;55.60;;;;;;4901848;29;20963;-76
2023/08/19 11:51:37;;;;;;;0.70;0.20;;;29.60;57.40;;;;;;4904238;29;20497;-74
2023/08/19 11:54:07;;;;;;;0.80;0.20;;;29.60;70.40;;;;;;4902770;29;20939;-73
2023/08/19 11:56:48;;;;;;;0.70;0.20;;;29.70;69.70;;;;;;4908211;29;20449;-75
2023/08/19 11:59:18;;;;;;;0.90;0.43;;;29.80;58.60;;;;;;4901169;29;20461;-73
2023/08/19 12:01:46;;;;;;;1.47;0.57;;;29.70;58.80;;;;;;4899385;29;20567;-73
2023/08/19 12:04:16;;;;;;;0.70;0.10;;;29.60;61.90;;;;;;4899788;29;20477;-74
2023/08/19 12:06:45;;;;;;;0.80;0.40;;;29.70;61.50;;;;;;4899340;29;20828;-73
2023/08/19 12:09:13;;;;;;;0.70;0.10;;;29.70;72.00;;;;;;4899402;29;20484;-73
2023/08/19 12:11:42;;;;;;;0.70;0.20;;;29.70;62.00;;;;;;4899062;29;20525;-73
2023/08/19 12:14:10;;;;;;;0.90;0.33;;;29.70;74.00;;;;;;4898853;29;20523;-74
2023/08/19 12:16:39;;;;;;;0.70;0.20;;;;;;;;;;4899146;29;21192;-74
2023/08/19 12:19:07;;;;;;;1.07;0.30;;;29.70;64.30;;;;;;4899171;29;20817;-74
2023/08/19 12:21:35;;;;;;;1.20;0.50;;;29.70;59.60;;;;;;4898653;29;20481;-75
2023/08/19 12:24:03;;;;;;;1.73;1.63;;;29.50;55.00;;;;;;4898210;29;20532;-75
2023/08/19 12:26:31;;;;;;;0.70;0.23;;;27.90;64.70;;;;;;4898741;29;20572;-75
2023/08/19 12:28:59;;;;;;;0.70;0.10;;;29.40;56.80;;;;;;4898925;29;21322;-72
2023/08/19 12:31:27;;;;;;;0.73;0.30;;;29.40;56.60;;;;;;4898663;29;20568;-70
2023/08/19 12:33:56;;;;;;;0.70;0.20;;;29.40;59.90;;;;;;4898794;29;20867;-70
2023/08/19 12:36:24;;;;;;;0.83;0.43;;;29.40;70.70;;;;;;4896714;29;20506;-71
2023/08/19 12:38:53;;;;;;;0.70;0.10;;;29.40;68.30;;;;;;4898448;29;20946;-70
2023/08/19 12:41:21;;;;;;;0.70;0.20;;;29.40;52.80;;;;;;4897757;29;20567;-70
2023/08/19 12:43:49;;;;;;;2.03;1.03;;;29.30;52.60;;;;;;4897847;29;20471;-71
2023/08/19 12:46:18;;;;;;;1.90;1.00;;;29.30;63.50;;;;;;4897632;29;20537;-71
2023/08/19 12:48:45;;;;;;;0.90;0.60;;;29.30;65.10;;;;;;4896768;29;20547;-69
2023/08/19 12:51:17;;;;;;;0.70;0.20;;;29.20;56.90;;;;;;4896601;29;20576;-71
2023/08/19 12:53:44;;;;;;;0.70;0.13;;;29.30;67.70;;;;;;4896863;29;20457;-71
2023/08/19 12:56:12;;;;;;;0.70;0.20;;;29.20;69.00;;;;;;4896403;29;20489;-74
2023/08/19 12:58:40;;;;;;;0.70;0.20;;;29.20;69.70;;;;;;4897499;29;20552;-72
2023/08/19 13:01:08;;;;;;;1.73;1.63;;;29.10;59.20;;;;;;4897478;29;20481;-71
2023/08/19 13:03:36;;;;;;;0.80;0.40;;;29.20;58.30;;;;;;4897320;29;20457;-73
2023/08/19 13:06:04;;;;;;;1.10;0.77;;;29.20;58.10;;;;;;4897812;29;20512;-73
2023/08/19 13:08:33;;;;;;;2.07;0.80;;;29.10;59.00;;;;;;4904582;29;20536;-73
2023/08/19 13:11:01;;;;;;;0.70;0.10;;;29.10;59.20;;;;;;4898847;29;20555;-72
2023/08/19 13:13:29;;;;;;;0.90;0.30;;;29.10;71.90;;;;;;4897874;29;20456;-73
2023/08/19 13:15:57;;;;;;;0.70;0.20;;;;;;;;;;4898233;29;21029;-74
2023/08/19 13:18:26;;;;;;;0.90;0.20;;;29.30;70.90;;;;;;4898368;29;20506;-73
2023/08/19 13:20:53;;;;;;;2.60;1.37;;;29.30;64.30;;;;;;4898259;29;20484;-75
2023/08/19 13:23:21;;;;;;;1.00;0.53;;;29.20;76.10;;;;;;4897859;29;20457;-74
2023/08/19 13:25:51;;;;;;;0.70;0.10;;;29.10;79.00;;;;;;4898237;29;20492;-73
2023/08/19 13:28:19;;;;;;;0.70;0.17;;;29.20;67.30;;;;;;4898904;29;20502;-74
2023/08/19 13:30:47;;;;;;;0.70;0.20;;;29.30;67.20;;;;;;4898650;29;20635;-74
2023/08/19 13:33:15;;;;;;;0.80;0.30;;;29.30;76.80;;;;;;4897897;29;20457;-74
2023/08/19 13:35:43;;;;;;;0.80;0.67;;;29.30;69.90;;;;;;4897843;29;20548;-73
2023/08/19 13:38:11;;;;;;;2.70;2.30;;;29.30;72.00;;;;;;4897268;29;20453;-74
2023/08/19 13:40:38;;;;;;;1.90;1.80;;;29.30;73.40;;;;;;4897571;29;20473;-74
2023/08/19 13:43:08;;;;;;;0.70;0.30;;;29.20;85.30;;;;;;4896549;29;20502;-74
2023/08/19 13:45:36;;;;;;;0.70;0.20;;;29.30;88.10;;;;;;4896882;29;20504;-72
2023/08/19 13:48:04;;;;;;;0.70;0.10;;;29.40;81.00;;;;;;4896737;29;20485;-73
2023/08/19 13:50:42;;;;;;;0.70;0.10;;;29.40;81.50;;;;;;4896973;29;20552;-73
2023/08/19 13:53:10;;;;;;;0.70;0.20;;;29.40;80.90;;;;;;4897538;29;20453;-73
2023/08/19 13:55:38;;;;;;;0.70;0.30;;;29.50;80.00;;;;;;4897072;29;20457;-74
2023/08/19 13:58:07;;;;;;;0.70;0.20;;;29.50;91.00;;;;;;4898636;29;20543;-73
2023/08/19 14:00:35;;;;;;;3.60;0.67;;;29.50;77.40;;;;;;4902536;29;20590;-75
2023/08/19 14:03:03;;;;;;;0.70;0.10;;;29.50;89.80;;;;;;4904985;29;20460;-73
2023/08/19 14:05:31;;;;;;;0.70;0.20;;;29.50;77.40;;;;;;4904708;29;20457;-73
2023/08/19 14:08:00;;;;;;;0.90;0.50;;;29.50;77.30;;;;;;4895818;29;20524;-72
2023/08/19 14:10:30;;;;;;;0.80;0.20;;;29.50;79.90;;;;;;4897063;29;20827;-72
2023/08/19 14:12:59;;;;;;;0.70;0.20;;;29.50;78.20;;;;;;4897148;29;20492;-75
2023/08/19 14:15:28;;;;;;;1.70;1.60;;;29.50;89.30;;;;;;4896645;29;20448;-71
2023/08/19 14:17:56;;;;;;;0.70;0.20;;;29.50;89.10;;;;;;4894570;29;20540;-71
2023/08/19 14:20:24;;;;;;;0.90;0.20;;;29.70;76.10;;;;;;4896294;29;20453;-72
2023/08/19 14:22:51;;;;;;;0.80;0.47;;;29.70;87.40;;;;;;4896882;29;20528;-71
2023/08/19 14:25:19;;;;;;;0.80;0.50;;;29.80;84.00;;;;;;4895969;29;20521;-75
2023/08/19 14:27:47;;;;;;;0.80;0.47;;;29.80;80.60;;;;;;4896382;29;20650;-74
2023/08/19 14:30:15;;;;;;;0.70;0.20;;;29.80;74.30;;;;;;4896203;29;20449;-71
2023/08/19 14:32:44;;;;;;;0.70;0.20;;;29.90;75.90;;;;;;4896181;29;20853;-72
2023/08/19 14:35:12;;;;;;;0.70;0.20;;;29.90;87.40;;;;;;4895670;29;20817;-71
2023/08/19 14:37:40;;;;;;;0.70;0.20;;;30.00;85.70;;;;;;4896010;29;20532;-70
2023/08/19 14:40:10;;;;;;;0.70;0.20;;;30.10;86.80;;;;;;4895342;29;20456;-71
2023/08/19 14:42:38;;;;;;;0.70;0.10;;;30.10;71.40;;;;;;4892489;29;21085;-74
2023/08/19 14:45:07;;;;;;;0.70;0.20;;;30.10;86.00;;;;;;4894759;29;20453;-75
2023/08/19 14:47:35;;;;;;;13.20;12.60;;;30.10;86.20;;;;;;4895493;29;20505;-75
2023/08/19 14:50:06;;;;;;;0.70;0.10;;;30.20;83.00;;;;;;4894774;29;20493;-75
2023/08/19 14:52:35;;;;;;;1.03;0.50;;;30.20;62.40;;;;;;4895444;29;20568;-74
2023/08/19 14:55:03;;;;;;;0.70;0.10;;;30.20;72.70;;;;;;4895435;29;20819;-73
2023/08/19 14:57:32;;;;;;;0.70;0.20;;;30.10;74.00;;;;;;4896840;29;20449;-74
2023/08/19 15:00:00;;;;;;;0.70;0.10;;;30.20;77.60;;;;;;4897488;29;20455;-74
2023/08/19 15:02:44;;;;;;;0.70;0.10;;;30.20;67.80;;;;;;4896604;29;20484;-74
2023/08/19 15:05:14;;;;;;;0.70;0.20;;;30.30;80.40;;;;;;4895865;29;20449;-75
2023/08/19 15:07:42;;;;;;;0.97;0.53;;;30.30;78.10;;;;;;4896446;29;20536;-76
2023/08/19 15:10:11;;;;;;;0.70;0.10;;;30.20;68.40;;;;;;4896913;29;21081;-75
2023/08/19 15:12:39;;;;;;;0.70;0.20;;;30.20;69.00;;;;;;4896368;29;20469;-77
2023/08/19 15:15:10;;;;;;;0.70;0.20;;;30.20;82.50;;;;;;4896517;29;20549;-76
2023/08/19 15:17:38;;;;;;;0.70;0.10;;;30.20;84.50;;;;;;4896365;29;20962;-73
2023/08/19 15:20:08;;;;;;;0.70;0.20;;;30.10;74.70;;;;;;4895753;29;20465;-74
2023/08/19 15:22:37;;;;;;;0.70;0.10;;;30.10;73.00;;;;;;4877939;29;20534;-73
2023/08/19 15:25:06;;;;;;;0.73;0.23;;;30.10;86.50;;;;;;4880365;29;20481;-74
2023/08/19 15:27:34;;;;;;;0.70;0.10;;;30.00;87.20;;;;;;4884442;29;20509;-73
2023/08/19 15:30:02;;;;;;;1.10;0.77;;;29.90;86.00;;;;;;4894614;29;20484;-73
2023/08/19 15:32:30;;;;;;;0.70;0.13;;;29.90;76.50;;;;;;4901744;29;20473;-75
2023/08/19 15:34:58;;;;;;;0.70;0.10;;;29.90;86.70;;;;;;4900323;29;20453;-75
2023/08/19 15:37:26;;;;;;;0.70;0.10;;;29.90;87.10;;;;;;4900559;29;20441;-75
2023/08/19 15:39:55;;;;;;;0.70;0.20;;;29.80;88.40;;;;;;4899537;29;20455;-75
2023/08/19 15:42:23;;;;;;;0.70;0.10;;;29.80;75.30;;;;;;4899818;29;20481;-73
2023/08/19 15:44:51;;;;;;;0.70;0.10;;;29.80;86.50;;;;;;4899330;29;21030;-73
2023/08/19 15:47:19;;;;;;;0.70;0.20;;;29.80;87.00;;;;;;4899291;29;20552;-71
2023/08/19 15:49:47;;;;;;;0.70;0.10;;;29.80;86.80;;;;;;4900576;29;20575;-76
2023/08/19 15:52:15;;;;;;;0.70;0.30;;;29.70;72.50;;;;;;4900059;29;20568;-76
2023/08/19 15:54:43;;;;;;;0.70;0.10;;;29.60;84.40;;;;;;4900358;29;20484;-75
2023/08/19 15:57:12;;;;;;;0.70;0.20;;;29.60;83.60;;;;;;4899669;29;20540;-76
2023/08/19 15:59:40;;;;;;;0.70;0.10;;;29.60;85.90;;;;;;4903024;29;20522;-77
2023/08/19 16:02:08;;;;;;;0.70;0.10;;;29.50;75.90;;;;;;4899692;29;20495;-77
2023/08/19 16:04:36;;;;;;;0.70;0.20;;;29.50;87.60;;;;;;4900461;29;20463;-76
2023/08/19 16:07:04;;;;;;;0.70;0.20;;;29.50;87.40;;;;;;4904132;29;20484;-77
2023/08/19 16:09:32;;;;;;;0.70;0.20;;;29.50;76.00;;;;;;4906009;29;20516;-77
2023/08/19 16:12:02;;;;;;;0.70;0.10;;;29.50;76.70;;;;;;4909182;29;20469;-77
2023/08/19 16:14:31;;;;;;;0.70;0.20;;;29.50;88.50;;;;;;4905452;29;20532;-78
2023/08/19 16:17:00;;;;;;;0.70;0.20;;;29.50;89.10;;;;;;4901932;29;20529;-77
2023/08/19 16:19:28;;;;;;;0.70;0.20;;;29.40;91.20;;;;;;4899974;29;20453;-76
2023/08/19 16:21:55;;;;;;;0.70;0.10;;;29.40;84.60;;;;;;4899077;29;20577;-77
2023/08/19 16:24:23;;;;;;;0.70;0.10;;;29.50;92.80;;;;;;4898199;29;20453;-76
2023/08/19 16:26:51;;;;;;;0.70;0.10;;;29.50;92.60;;;;;;4898400;29;20445;-77
2023/08/19 16:29:19;;;;;;;0.70;0.13;;;29.60;93.10;;;;;;4898281;29;20570;-76
2023/08/19 16:31:48;;;;;;;0.70;0.10;;;29.70;86.40;;;;;;4898229;29;20991;-77
2023/08/19 16:34:16;;;;;;;0.70;0.10;;;29.70;93.60;;;;;;4898714;29;20457;-75
2023/08/19 16:36:44;;;;;;;0.80;0.60;;;29.70;95.10;;;;;;4898230;29;20453;-76
2023/08/19 16:39:12;;;;;;;0.70;0.40;;;29.70;91.00;;;;;;4897510;29;20449;-76
2023/08/19 16:41:39;;;;;;;0.70;0.10;;;29.60;82.20;;;;;;4898045;29;20526;-76
2023/08/19 16:44:08;;;;;;;0.70;0.20;;;29.70;92.40;;;;;;4895735;29;20601;-75
2023/08/19 16:46:36;;;;;;;0.70;0.10;;;29.60;91.70;;;;;;4896197;29;20536;-75
2023/08/19 16:49:06;;;;;;;0.70;0.20;;;29.60;92.10;;;;;;4897359;29;20503;-76
2023/08/19 16:51:34;;;;;;;0.70;0.20;;;29.60;82.50;;;;;;4897620;29;20567;-74
2023/08/19 16:54:01;;;;;;;0.70;0.20;;;29.60;91.40;;;;;;4897529;29;20461;-76
2023/08/19 16:56:30;;;;;;;0.80;0.47;;;29.60;91.80;;;;;;4896882;29;20529;-76
2023/08/19 16:58:58;;;;;;;0.70;0.10;;;29.60;92.30;;;;;;4898178;29;20488;-77
2023/08/19 17:01:26;;;;;;;0.70;0.20;;;;;;;;;;4898320;29;20485;-76